Milwaukee, WI (53207)

3:20 PM CDT op 29 augustus 2014 (GMT -0500)
E Layton | Change Station
CLOSE
Current Station
Persoonlijk weerstation
Location: Cudahy, WI
Geometrische hoogte: 712 ft
Nabije weerstations

Hoogte 712 ft 42.96 °N, 87.86 °W | Updated 3 seconds ago

Mostly Cloudy
Merendeels bewolkt
74.1 °F
Voelt als 73 °F
N
0.0
Wind Variabel Wind van ZO
Gusts 2.0 mijl/u

Vandaag
Hoog -- | Laag -- °F
--% Kans op neerslag
Gisteren
Hoog -- | Laag -- °F
Precip. -- inches
6:12 AM 7:31 PM
Wassende halvemaan, 16% visible
Druk 29.89 inches
Zicht 10.0 mijlen
Wolken Merendeels bewolkt 13000 ft
Warmteindex 73 °F
Dauwpunt 70 °F
Vochtigheid 87%
Neerslag 0.09 inches
Dikte sneeuw Niet beschikbaar.
UV 4 van de 12
Pollen 1.30 van de 12
Ozon Goed
PM2.5 Matig
Flu Activity Niet beschikbaar.
METAR KMKE 291952Z 13009KT 10SM BKN130 27/22 A2989

More Conditions Fewer Conditions

Druk 29.89 inches
Zicht 10.0 mijlen
Wolken Merendeels bewolkt 13000 ft
Warmteindex 73 °F
Dauwpunt 70 °F
Vochtigheid 87%
Neerslag 0.09 inches
Dikte sneeuw Niet beschikbaar.
UV 4 van de 12
Pollen 1.30 van de 12
Ozon Goed
PM2.5 Matig
Flu Activity Niet beschikbaar.
METAR KMKE 291952Z 13009KT 10SM BKN130 27/22 A2989

More Conditions Fewer Conditions

10-Day Weather Forecast

Almanac

Astronomie

Aug. 29, 2014 Opkomst Ondergang
Werkelijke tijd 6:12 AM CDT 7:31 PM CDT
Burgerlijke schemering 5:43 AM CDT 8:00 PM CDT
Nautische schemering 5:07 AM CDT 8:35 PM CDT
Astronomische schemering 4:30 AM CDT 9:13 PM CDT
Maan 10:08 AM CDT 9:21 PM CDT
Golflengte van het zichtbare licht 14h 17m
Daglengte
13h 18m
Tomorrow will be 2m 48s shorter.
Wassende halvemaan, 16% of the Moon is Illuminated
Vandaag
Wassende halvemaan
sep 2
Eerste kwartier
sep 8
Volle maan
sep 15
Laatste kwartier
sep 24
Nieuw

Extremen vandaag

State Highs State Lows

Community

WunderPhotos

Upload Photos

1,748,337 foto’s ge-upload!

WunderBlogs® & News

By Dr. Jeff Masters
Director of Meteorology, Weather Underground
By Kari Strenfel
Meteorologist, Weather Underground
By Christopher C. Burt
Weather Historian, Weather Underground
August 29, 2014
August 29, 2014
August 29, 2014

Nearby

Luchtkwaliteit

  Luchtkwaliteit LK-index Verontreinigende stof
Gisteren Goed
OZONE
Gisteren Goed
PM10
Actueel Matig
PM2.5
Actueel Goed
OZONE
vrijdag Matig
OZONE
vrijdag Goed
PM2.5
zaterdag Goed
OZONE
zaterdag Goed
PM2.5
zondag Matig
OZONE
zondag Matig
PM2.5
maandag Goed
OZONE
maandag Goed
PM2.5
dinsdag Goed
OZONE
dinsdag Goed
PM2.5

Dikte sneeuw

Station Depth Geometrische hoogte
Er is geen verse sneeuw gerapporteerd.

Aardbevingen

Stad Distance Mag. Time & Date
No recent earthquake activity has been reported nearby.
Minimum magnitude displayed is 2.5.

Watertemperatuur langs de kust

Plaats Temperatuur
Geen meldingen van stations

Nabije weerstations